createdAt,value
2022-10-23T00:02:20.373Z,85.79
2022-10-23T00:05:23.361Z,86.01
2022-10-23T00:08:25.804Z,86.53
2022-10-23T00:11:34.206Z,87.10
2022-10-23T00:14:36.724Z,86.69
2022-10-23T00:17:39.339Z,86.63
2022-10-23T00:20:41.836Z,86.93
2022-10-23T00:23:44.763Z,87.35
2022-10-23T00:26:50.457Z,87.03
2022-10-23T00:29:52.994Z,87.58
2022-10-23T00:32:55.331Z,87.31
2022-10-23T00:35:57.720Z,87.61
2022-10-23T00:39:00.206Z,87.68
2022-10-23T00:42:02.554Z,88.43
2022-10-23T00:45:09.984Z,89.43
2022-10-23T00:48:12.944Z,89.35
2022-10-23T00:51:15.668Z,89.35
2022-10-23T00:54:24.336Z,88.66
2022-10-23T01:00:47.112Z,90.06
2022-10-23T01:03:50.043Z,89.87
2022-10-23T01:06:55.483Z,90.35
2022-10-23T01:09:57.839Z,90.75
2022-10-23T01:13:12.878Z,90.39
2022-10-23T01:16:28.876Z,90.34
2022-10-23T01:19:47.878Z,90.46
2022-10-23T01:23:12.151Z,88.70
2022-10-23T01:26:46.487Z,88.00
2022-10-23T01:30:12.244Z,88.45
2022-10-23T01:33:25.290Z,88.35
2022-10-23T01:36:29.443Z,88.50
2022-10-23T01:39:40.248Z,88.34
2022-10-23T01:42:47.590Z,88.32
2022-10-23T01:45:53.344Z,89.41
2022-10-23T01:48:59.042Z,89.41
2022-10-23T01:52:06.627Z,89.23
2022-10-23T01:55:11.189Z,89.77
2022-10-23T01:58:15.586Z,90.10
2022-10-23T02:01:20.401Z,89.85
2022-10-23T02:04:51.073Z,90.03
2022-10-23T02:07:54.985Z,90.49
2022-10-23T02:11:05.716Z,89.59
2022-10-23T02:14:25.408Z,88.45
2022-10-23T02:17:57.528Z,89.48
2022-10-23T02:21:17.724Z,89.63
2022-10-23T02:24:32.063Z,89.60
2022-10-23T02:27:44.269Z,90.87
2022-10-23T02:30:49.251Z,90.82
2022-10-23T02:33:51.739Z,90.83
2022-10-23T02:36:54.458Z,90.81
2022-10-23T02:39:57.914Z,90.87
2022-10-23T02:43:14.481Z,90.63
2022-10-23T02:46:30.201Z,91.37
2022-10-23T02:49:54.114Z,90.34
2022-10-23T02:53:12.322Z,90.55
2022-10-23T02:56:37.965Z,91.33
2022-10-23T02:59:47.569Z,90.71
2022-10-23T03:02:57.764Z,91.86
2022-10-23T03:06:02.954Z,91.48
2022-10-23T03:09:08.574Z,92.09
2022-10-23T03:12:10.982Z,90.59
2022-10-23T03:15:13.386Z,90.45
2022-10-23T03:18:16.253Z,90.38
2022-10-23T03:21:26.642Z,90.55
2022-10-23T03:24:29.792Z,90.23
2022-10-23T03:27:32.794Z,90.43
2022-10-23T03:30:40.020Z,90.42
2022-10-23T03:33:42.442Z,90.41
2022-10-23T03:36:47.188Z,91.33
2022-10-23T03:39:50.331Z,91.53
2022-10-23T03:42:52.813Z,91.35
2022-10-23T03:45:58.757Z,90.76
2022-10-23T03:49:01.858Z,91.05
2022-10-23T03:52:04.812Z,91.61
2022-10-23T03:55:07.885Z,91.34
2022-10-23T03:58:12.254Z,91.37
2022-10-23T04:01:15.235Z,91.41
2022-10-23T04:04:17.683Z,90.82
2022-10-23T04:07:20.068Z,91.85
2022-10-23T04:10:25.238Z,91.90
2022-10-23T04:13:27.653Z,91.12
2022-10-23T04:16:30.093Z,90.49
2022-10-23T04:19:32.476Z,91.09
2022-10-23T04:22:34.888Z,91.18
2022-10-23T04:25:37.268Z,89.88
2022-10-23T04:28:40.616Z,89.77
2022-10-23T04:31:43.236Z,89.78
2022-10-23T04:34:45.562Z,90.28
2022-10-23T04:37:48.452Z,90.65
2022-10-23T04:40:50.821Z,90.75
2022-10-23T04:43:56.877Z,90.62
2022-10-23T04:46:59.226Z,90.81
2022-10-23T04:50:01.778Z,90.70
2022-10-23T04:53:23.830Z,90.61
2022-10-23T04:56:44.698Z,92.40
2022-10-23T04:59:53.317Z,92.11
2022-10-23T05:02:55.713Z,93.38
2022-10-23T05:05:58.700Z,93.54
2022-10-23T05:09:19.673Z,93.04
2022-10-23T05:12:39.268Z,92.78
2022-10-23T05:18:48.999Z,92.17
2022-10-23T05:21:55.818Z,92.42
2022-10-23T05:25:03.219Z,91.91
2022-10-23T05:28:07.938Z,92.48
2022-10-23T05:31:10.860Z,92.68
2022-10-23T05:34:17.233Z,91.51
2022-10-23T05:37:20.352Z,90.94
2022-10-23T05:40:23.927Z,91.39
2022-10-23T05:43:31.679Z,92.19
2022-10-23T05:46:58.214Z,92.71
2022-10-23T05:50:31.476Z,93.94
2022-10-23T05:53:56.011Z,93.76
2022-10-23T05:57:33.366Z,93.41
2022-10-23T06:00:39.894Z,92.26
2022-10-23T06:04:02.961Z,91.70
2022-10-23T06:07:31.277Z,92.13
2022-10-23T06:10:38.853Z,91.61
2022-10-23T06:13:44.184Z,91.36
2022-10-23T06:16:46.827Z,90.89
2022-10-23T06:19:50.704Z,91.02
2022-10-23T06:22:54.135Z,89.70
2022-10-23T06:26:18.219Z,89.21
2022-10-23T06:29:34.489Z,90.51
2022-10-23T06:32:38.214Z,89.15
2022-10-23T06:35:47.864Z,88.25
2022-10-23T06:38:51.898Z,88.35
2022-10-23T06:41:55.848Z,88.16
2022-10-23T06:45:17.104Z,88.69
2022-10-23T06:48:38.041Z,89.64
2022-10-23T06:51:46.740Z,90.52
2022-10-23T06:54:50.712Z,89.26
2022-10-23T06:57:56.843Z,89.35
2022-10-23T07:01:05.093Z,89.69
2022-10-23T07:04:07.569Z,88.80
2022-10-23T07:07:09.949Z,89.40
2022-10-23T07:10:20.160Z,89.22
2022-10-23T07:13:28.220Z,89.12
2022-10-23T07:16:40.098Z,87.94
2022-10-23T07:19:48.416Z,89.12
2022-10-23T07:22:56.044Z,89.65
2022-10-23T07:26:15.459Z,88.50
2022-10-23T07:29:18.087Z,87.68
2022-10-23T07:32:20.466Z,86.94
2022-10-23T07:35:43.192Z,87.16
2022-10-23T07:38:50.785Z,87.29
2022-10-23T07:41:53.200Z,86.96
2022-10-23T07:44:55.548Z,87.26
2022-10-23T07:47:59.158Z,86.51
2022-10-23T07:51:13.140Z,86.72
2022-10-23T07:54:21.341Z,87.26
2022-10-23T07:57:32.816Z,87.08
2022-10-23T08:00:52.056Z,87.48
2022-10-23T08:04:02.029Z,86.55
2022-10-23T08:07:05.870Z,85.40
2022-10-23T08:10:14.052Z,85.80
2022-10-23T08:13:20.419Z,86.12
2022-10-23T08:16:32.933Z,85.99
2022-10-23T08:20:10.553Z,85.17
2022-10-23T08:23:18.819Z,84.81
2022-10-23T08:26:21.427Z,84.24
2022-10-23T08:29:23.789Z,84.53
2022-10-23T08:32:30.894Z,83.95
2022-10-23T08:35:37.507Z,83.31
2022-10-23T08:38:42.196Z,82.92
2022-10-23T08:41:50.710Z,83.50
2022-10-23T08:45:27.085Z,83.49
2022-10-23T08:48:45.367Z,81.76
2022-10-23T08:52:22.285Z,81.62
2022-10-23T08:55:30.247Z,82.39
2022-10-23T08:58:47.087Z,81.43
2022-10-23T09:01:52.850Z,80.75
2022-10-23T09:04:57.544Z,80.71
2022-10-23T09:08:37.991Z,84.13
2022-10-23T09:11:59.771Z,83.41
2022-10-23T09:15:25.128Z,80.87
2022-10-23T09:18:27.516Z,79.82
2022-10-23T09:21:31.163Z,76.63
2022-10-23T09:24:34.175Z,77.52
2022-10-23T09:27:37.708Z,77.29
2022-10-23T09:30:42.609Z,78.69
2022-10-23T09:34:02.992Z,77.42
2022-10-23T09:37:27.453Z,76.15
2022-10-23T09:40:42.856Z,78.43
2022-10-23T09:43:46.042Z,78.73
2022-10-23T09:49:57.299Z,78.33
2022-10-23T09:53:01.155Z,77.07
2022-10-23T09:56:07.861Z,77.77
2022-10-23T09:59:13.283Z,78.58
2022-10-23T10:02:32.354Z,78.65
2022-10-23T10:05:57.234Z,79.51
2022-10-23T10:09:28.445Z,80.35
2022-10-23T10:12:40.042Z,81.27
2022-10-23T10:15:49.066Z,81.53
2022-10-23T10:19:07.409Z,82.97
2022-10-23T10:22:33.961Z,82.80
2022-10-23T10:26:01.653Z,82.65
2022-10-23T10:29:15.935Z,82.14
2022-10-23T10:33:12.544Z,81.49
2022-10-23T10:36:29.854Z,81.53
2022-10-23T10:39:40.552Z,81.32
2022-10-23T10:42:55.569Z,80.66
2022-10-23T10:46:34.452Z,81.12
2022-10-23T10:49:59.360Z,81.56
2022-10-23T10:53:48.893Z,81.79
2022-10-23T10:56:51.373Z,81.82
2022-10-23T10:59:56.069Z,81.97
2022-10-23T11:03:09.864Z,80.99
2022-10-23T11:06:24.799Z,79.33
2022-10-23T11:09:28.971Z,79.82
2022-10-23T11:12:34.417Z,79.82
2022-10-23T11:15:43.121Z,78.58
2022-10-23T11:18:53.428Z,78.62
2022-10-23T11:21:59.865Z,77.74
2022-10-23T11:25:36.762Z,77.97
2022-10-23T11:29:05.604Z,76.44
2022-10-23T11:32:23.592Z,75.14
2022-10-23T11:35:43.632Z,75.34
2022-10-23T11:38:48.200Z,75.03
2022-10-23T11:41:59.533Z,74.43
2022-10-23T11:45:01.934Z,72.90
2022-10-23T11:48:14.432Z,73.70
2022-10-23T11:51:28.077Z,74.42
2022-10-23T11:54:30.931Z,75.21
2022-10-23T11:57:33.496Z,75.09
2022-10-23T12:00:40.196Z,73.18
2022-10-23T12:03:55.134Z,74.06
2022-10-23T12:07:00.508Z,74.08
2022-10-23T12:10:17.186Z,71.81
2022-10-23T12:13:51.041Z,72.27
2022-10-23T12:16:53.522Z,73.58
2022-10-23T12:20:11.119Z,73.51
2022-10-23T12:23:47.378Z,73.43
2022-10-23T12:26:56.592Z,72.63
2022-10-23T12:30:17.494Z,72.28
2022-10-23T12:33:30.714Z,70.81
2022-10-23T12:36:51.861Z,72.10
2022-10-23T12:39:59.052Z,72.59
2022-10-23T12:43:01.798Z,74.08
2022-10-23T12:46:27.510Z,72.19
2022-10-23T12:49:33.530Z,73.19
2022-10-23T12:52:39.585Z,74.50
2022-10-23T12:55:48.994Z,74.75
2022-10-23T12:58:54.100Z,74.83
2022-10-23T13:01:56.687Z,74.79
2022-10-23T13:05:01.509Z,74.87
2022-10-23T13:08:04.518Z,75.66
2022-10-23T13:11:20.914Z,74.77
2022-10-23T13:14:38.261Z,74.89
2022-10-23T13:17:59.364Z,74.93
2022-10-23T13:24:19.930Z,74.53
2022-10-23T13:27:33.776Z,73.93
2022-10-23T13:30:39.008Z,72.40
2022-10-23T13:33:46.022Z,75.05
2022-10-23T13:36:53.931Z,76.71
2022-10-23T13:40:10.770Z,78.24
2022-10-23T13:43:16.068Z,79.50
2022-10-23T13:46:22.111Z,80.07
2022-10-23T13:49:25.401Z,79.82
2022-10-23T13:52:28.066Z,80.02
2022-10-23T13:55:31.678Z,80.19
2022-10-23T13:58:34.043Z,80.42
2022-10-23T14:01:36.738Z,79.59
2022-10-23T14:04:39.352Z,79.81
2022-10-23T14:07:41.997Z,79.70
2022-10-23T14:10:45.093Z,80.73
2022-10-23T14:13:48.166Z,80.26
2022-10-23T14:16:52.706Z,80.84
2022-10-23T14:19:55.487Z,81.31
2022-10-23T14:22:57.859Z,81.24
2022-10-23T14:26:04.531Z,81.28
2022-10-23T14:29:09.863Z,80.37
2022-10-23T14:32:16.434Z,80.81
2022-10-23T14:35:18.811Z,81.07
2022-10-23T14:38:21.381Z,81.32
2022-10-23T14:41:25.902Z,81.56
2022-10-23T14:44:29.139Z,81.50
2022-10-23T14:47:31.844Z,79.96
2022-10-23T14:50:36.394Z,79.33
2022-10-23T14:53:38.831Z,78.64
2022-10-23T14:56:41.296Z,78.80
2022-10-23T14:59:44.000Z,80.40
2022-10-23T15:02:46.638Z,81.22
2022-10-23T15:05:50.478Z,82.10
2022-10-23T15:08:55.435Z,82.76
2022-10-23T15:11:58.117Z,83.19
2022-10-23T15:15:01.172Z,83.85
2022-10-23T15:18:04.009Z,84.09
2022-10-23T15:21:07.526Z,84.36
2022-10-23T15:24:09.860Z,84.86
2022-10-23T15:27:13.501Z,85.27
2022-10-23T15:30:17.435Z,85.22
2022-10-23T15:33:20.969Z,85.09
2022-10-23T15:36:24.608Z,84.85
2022-10-23T15:39:33.786Z,84.85
2022-10-23T15:42:36.646Z,85.73
2022-10-23T15:45:41.091Z,85.33
2022-10-23T15:48:44.006Z,85.16
2022-10-23T15:51:46.635Z,85.09
2022-10-23T15:54:49.792Z,85.82
2022-10-23T15:57:52.662Z,86.08
2022-10-23T16:00:56.150Z,86.77
2022-10-23T16:03:59.040Z,86.81
2022-10-23T16:07:01.636Z,86.94
2022-10-23T16:10:04.323Z,87.13
2022-10-23T16:13:08.025Z,87.00
2022-10-23T16:16:12.020Z,87.22
2022-10-23T16:19:14.716Z,87.04
2022-10-23T16:22:17.503Z,87.59
2022-10-23T16:25:21.551Z,87.16
2022-10-23T16:28:24.849Z,87.37
2022-10-23T16:31:27.653Z,86.86
2022-10-23T16:34:30.054Z,86.80
2022-10-23T16:37:33.305Z,87.36
2022-10-23T16:40:41.597Z,86.29
2022-10-23T16:44:02.610Z,87.31
2022-10-23T16:47:31.086Z,86.89
2022-10-23T16:50:33.583Z,86.94
2022-10-23T16:53:36.817Z,87.55
2022-10-23T16:56:39.677Z,87.55
2022-10-23T16:59:42.364Z,87.61
2022-10-23T17:02:47.550Z,87.92
2022-10-23T17:05:51.969Z,87.61
2022-10-23T17:08:55.460Z,88.15
2022-10-23T17:11:59.239Z,88.54
2022-10-23T17:15:01.676Z,88.36
2022-10-23T17:18:06.390Z,88.51
2022-10-23T17:21:10.321Z,88.64
2022-10-23T17:24:13.354Z,88.70
2022-10-23T17:27:16.000Z,88.98
2022-10-23T17:30:18.698Z,88.68
2022-10-23T17:33:21.349Z,89.17
2022-10-23T17:36:26.318Z,89.28
2022-10-23T17:39:29.610Z,89.20
2022-10-23T17:42:32.239Z,89.25
2022-10-23T17:45:36.993Z,89.49
2022-10-23T17:48:43.881Z,89.26
2022-10-23T17:51:46.562Z,89.60
2022-10-23T17:54:52.144Z,89.58
2022-10-23T17:57:54.793Z,89.53
2022-10-23T18:00:57.762Z,89.67
2022-10-23T18:04:02.468Z,89.79
2022-10-23T18:07:05.130Z,89.25
2022-10-23T18:10:08.137Z,89.52
2022-10-23T18:13:10.834Z,89.25
2022-10-23T18:16:14.234Z,88.88
2022-10-23T18:19:18.346Z,88.58
2022-10-23T18:22:21.324Z,88.93
2022-10-23T18:25:23.806Z,89.01
2022-10-23T18:28:27.773Z,88.64
2022-10-23T18:31:31.878Z,88.69
2022-10-23T18:34:35.157Z,88.91
2022-10-23T18:37:41.209Z,88.50
2022-10-23T18:40:44.361Z,89.00
2022-10-23T18:43:48.375Z,88.93
2022-10-23T18:46:51.918Z,89.10
2022-10-23T18:49:55.082Z,88.83
2022-10-23T18:52:58.194Z,89.28
2022-10-23T18:56:00.930Z,89.50
2022-10-23T18:59:05.233Z,89.46
2022-10-23T19:02:09.628Z,89.86
2022-10-23T19:05:12.445Z,89.66
2022-10-23T19:08:15.005Z,89.86
2022-10-23T19:11:19.335Z,89.92
2022-10-23T19:14:22.029Z,90.56
2022-10-23T19:17:32.028Z,90.25
2022-10-23T19:20:34.855Z,90.37
2022-10-23T19:23:38.397Z,90.25
2022-10-23T19:26:42.182Z,89.62
2022-10-23T19:29:47.192Z,89.62
2022-10-23T19:32:50.295Z,89.50
2022-10-23T19:35:52.920Z,89.18
2022-10-23T19:38:55.663Z,90.03
2022-10-23T19:41:58.789Z,90.26
2022-10-23T19:45:01.460Z,90.66
2022-10-23T19:48:04.500Z,91.13
2022-10-23T19:51:07.795Z,91.29
2022-10-23T19:54:10.686Z,91.33
2022-10-23T19:57:15.529Z,90.84
2022-10-23T20:00:19.884Z,90.68
2022-10-23T20:03:22.571Z,90.69
2022-10-23T20:06:28.245Z,90.87
2022-10-23T20:09:31.019Z,90.44
2022-10-23T20:12:35.455Z,90.49
2022-10-23T20:15:38.957Z,89.93
2022-10-23T20:18:41.578Z,90.14
2022-10-23T20:21:47.987Z,89.90
2022-10-23T20:24:51.916Z,89.91
2022-10-23T20:27:54.920Z,89.47
2022-10-23T20:30:57.291Z,89.12
2022-10-23T20:33:59.998Z,89.36
2022-10-23T20:37:02.679Z,89.58
2022-10-23T20:40:05.620Z,88.96
2022-10-23T20:43:08.096Z,88.88
2022-10-23T20:46:11.107Z,88.69
2022-10-23T20:49:14.593Z,88.49
2022-10-23T20:52:16.968Z,89.16
2022-10-23T20:55:20.991Z,89.47
2022-10-23T20:58:23.750Z,89.09
2022-10-23T21:01:26.834Z,89.36
2022-10-23T21:04:30.225Z,89.37
2022-10-23T21:07:32.639Z,89.21
2022-10-23T21:10:35.118Z,89.58
2022-10-23T21:13:37.521Z,89.44
2022-10-23T21:16:41.358Z,89.83
2022-10-23T21:19:43.756Z,90.05
2022-10-23T21:22:46.275Z,89.81
2022-10-23T21:25:49.022Z,89.47
2022-10-23T21:28:56.147Z,90.54
2022-10-23T21:32:09.135Z,89.94
2022-10-23T21:35:11.476Z,89.93
2022-10-23T21:38:13.838Z,90.19
2022-10-23T21:41:21.873Z,90.05
2022-10-23T21:44:24.271Z,90.03
2022-10-23T21:47:26.657Z,89.84
2022-10-23T21:50:29.986Z,89.54
2022-10-23T21:53:33.078Z,89.91
2022-10-23T21:56:42.928Z,90.16
2022-10-23T21:59:46.523Z,89.51
2022-10-23T22:02:49.131Z,89.91
2022-10-23T22:05:51.903Z,90.84
2022-10-23T22:08:56.501Z,91.00
2022-10-23T22:12:00.042Z,90.76
2022-10-23T22:15:02.381Z,90.65
2022-10-23T22:18:05.623Z,89.84
2022-10-23T22:21:11.268Z,89.86
2022-10-23T22:24:13.964Z,89.46
2022-10-23T22:27:17.673Z,89.66
2022-10-23T22:30:20.975Z,89.54
2022-10-23T22:33:23.321Z,89.67
2022-10-23T22:36:26.278Z,89.99
2022-10-23T22:39:28.625Z,90.40
2022-10-23T22:42:31.014Z,90.62
2022-10-23T22:45:33.365Z,90.75
2022-10-23T22:48:36.206Z,90.61
2022-10-23T22:51:39.686Z,90.50
2022-10-23T22:54:42.111Z,89.94
2022-10-23T22:57:44.679Z,90.06
2022-10-23T23:00:48.140Z,89.36
2022-10-23T23:03:51.184Z,89.73
2022-10-23T23:06:53.553Z,89.59
2022-10-23T23:09:55.928Z,89.94
2022-10-23T23:12:58.397Z,89.66
2022-10-23T23:16:02.276Z,90.11
2022-10-23T23:19:05.548Z,89.95
2022-10-23T23:22:08.164Z,90.32
2022-10-23T23:25:10.623Z,90.18
2022-10-23T23:28:14.241Z,89.45
2022-10-23T23:31:22.139Z,89.65
2022-10-23T23:34:24.552Z,89.48
2022-10-23T23:37:26.911Z,89.31
2022-10-23T23:40:29.356Z,88.79
2022-10-23T23:43:32.036Z,89.29
2022-10-23T23:46:34.464Z,89.75
2022-10-23T23:49:36.809Z,89.24
2022-10-23T23:52:39.292Z,88.58
2022-10-23T23:58:44.652Z,88.94
